sensor_id;sensor_type;location;lat;lon;timestamp;P1;durP1;ratioP1;P2;durP2;ratioP2
41115;SDS011;26861;51.824;4.682;2023-07-02T00:02:04;9.52;;;5.28;;
41115;SDS011;26861;51.824;4.682;2023-07-02T00:04:30;10.25;;;5.60;;
41115;SDS011;26861;51.824;4.682;2023-07-02T00:06:56;10.27;;;5.03;;
41115;SDS011;26861;51.824;4.682;2023-07-02T00:09:21;8.05;;;4.72;;
41115;SDS011;26861;51.824;4.682;2023-07-02T00:11:47;10.80;;;5.45;;
41115;SDS011;26861;51.824;4.682;2023-07-02T00:14:13;9.85;;;5.15;;
41115;SDS011;26861;51.824;4.682;2023-07-02T00:16:43;9.07;;;5.43;;
41115;SDS011;26861;51.824;4.682;2023-07-02T00:19:11;9.38;;;4.80;;
41115;SDS011;26861;51.824;4.682;2023-07-02T00:21:39;8.73;;;5.25;;
41115;SDS011;26861;51.824;4.682;2023-07-02T00:24:06;10.10;;;5.32;;
41115;SDS011;26861;51.824;4.682;2023-07-02T00:26:35;8.52;;;5.22;;
41115;SDS011;26861;51.824;4.682;2023-07-02T00:29:02;8.52;;;5.05;;
41115;SDS011;26861;51.824;4.682;2023-07-02T00:31:33;9.27;;;5.20;;
41115;SDS011;26861;51.824;4.682;2023-07-02T00:33:59;8.80;;;4.25;;
41115;SDS011;26861;51.824;4.682;2023-07-02T00:36:27;7.88;;;5.32;;
41115;SDS011;26861;51.824;4.682;2023-07-02T00:38:53;7.80;;;5.05;;
41115;SDS011;26861;51.824;4.682;2023-07-02T00:41:20;8.82;;;5.60;;
41115;SDS011;26861;51.824;4.682;2023-07-02T00:43:46;8.25;;;4.63;;
41115;SDS011;26861;51.824;4.682;2023-07-02T00:46:13;7.15;;;4.72;;
41115;SDS011;26861;51.824;4.682;2023-07-02T00:51:16;6.35;;;4.10;;
41115;SDS011;26861;51.824;4.682;2023-07-02T00:53:46;6.53;;;4.45;;
41115;SDS011;26861;51.824;4.682;2023-07-02T00:56:13;8.15;;;4.88;;
41115;SDS011;26861;51.824;4.682;2023-07-02T00:58:39;9.85;;;5.40;;
41115;SDS011;26861;51.824;4.682;2023-07-02T01:01:11;7.75;;;4.88;;
41115;SDS011;26861;51.824;4.682;2023-07-02T01:06:25;6.50;;;4.18;;
41115;SDS011;26861;51.824;4.682;2023-07-02T01:08:53;8.23;;;4.93;;
41115;SDS011;26861;51.824;4.682;2023-07-02T01:11:20;6.53;;;4.25;;
41115;SDS011;26861;51.824;4.682;2023-07-02T01:14:04;9.10;;;4.60;;
41115;SDS011;26861;51.824;4.682;2023-07-02T01:16:34;7.07;;;4.70;;
41115;SDS011;26861;51.824;4.682;2023-07-02T01:19:02;6.25;;;4.30;;
41115;SDS011;26861;51.824;4.682;2023-07-02T01:21:35;7.85;;;4.28;;
41115;SDS011;26861;51.824;4.682;2023-07-02T01:24:02;6.63;;;4.20;;
41115;SDS011;26861;51.824;4.682;2023-07-02T01:26:32;7.20;;;4.45;;
41115;SDS011;26861;51.824;4.682;2023-07-02T01:28:59;5.40;;;4.03;;
41115;SDS011;26861;51.824;4.682;2023-07-02T01:31:36;6.75;;;4.57;;
41115;SDS011;26861;51.824;4.682;2023-07-02T01:34:03;7.75;;;4.18;;
41115;SDS011;26861;51.824;4.682;2023-07-02T01:36:30;6.70;;;3.88;;
41115;SDS011;26861;51.824;4.682;2023-07-02T01:38:56;7.70;;;4.57;;
41115;SDS011;26861;51.824;4.682;2023-07-02T01:41:22;5.38;;;3.88;;
41115;SDS011;26861;51.824;4.682;2023-07-02T01:43:48;5.32;;;3.92;;
41115;SDS011;26861;51.824;4.682;2023-07-02T01:46:15;7.25;;;4.47;;
41115;SDS011;26861;51.824;4.682;2023-07-02T01:48:41;5.10;;;3.65;;
41115;SDS011;26861;51.824;4.682;2023-07-02T01:51:07;5.38;;;3.88;;
41115;SDS011;26861;51.824;4.682;2023-07-02T01:53:33;5.75;;;3.67;;
41115;SDS011;26861;51.824;4.682;2023-07-02T01:55:59;7.15;;;4.45;;
41115;SDS011;26861;51.824;4.682;2023-07-02T01:58:25;6.57;;;4.03;;
41115;SDS011;26861;51.824;4.682;2023-07-02T02:00:51;4.80;;;3.67;;
41115;SDS011;26861;51.824;4.682;2023-07-02T02:03:17;7.75;;;4.10;;
41115;SDS011;26861;51.824;4.682;2023-07-02T02:05:43;6.72;;;4.20;;
41115;SDS011;26861;51.824;4.682;2023-07-02T02:08:09;5.78;;;4.15;;
41115;SDS011;26861;51.824;4.682;2023-07-02T02:10:35;7.50;;;4.47;;
41115;SDS011;26861;51.824;4.682;2023-07-02T02:13:01;6.18;;;4.18;;
41115;SDS011;26861;51.824;4.682;2023-07-02T02:15:28;4.53;;;3.70;;
41115;SDS011;26861;51.824;4.682;2023-07-02T02:17:54;6.22;;;4.07;;
41115;SDS011;26861;51.824;4.682;2023-07-02T02:20:20;5.40;;;3.85;;
41115;SDS011;26861;51.824;4.682;2023-07-02T02:22:46;4.95;;;3.65;;
41115;SDS011;26861;51.824;4.682;2023-07-02T02:25:12;5.65;;;3.90;;
41115;SDS011;26861;51.824;4.682;2023-07-02T02:27:39;6.97;;;4.25;;
41115;SDS011;26861;51.824;4.682;2023-07-02T02:30:05;7.80;;;4.65;;
41115;SDS011;26861;51.824;4.682;2023-07-02T02:32:31;6.72;;;3.83;;
41115;SDS011;26861;51.824;4.682;2023-07-02T02:34:57;7.47;;;4.60;;
41115;SDS011;26861;51.824;4.682;2023-07-02T02:37:23;6.05;;;3.92;;
41115;SDS011;26861;51.824;4.682;2023-07-02T02:39:48;7.18;;;4.25;;
41115;SDS011;26861;51.824;4.682;2023-07-02T02:42:15;5.97;;;3.92;;
41115;SDS011;26861;51.824;4.682;2023-07-02T02:44:40;5.65;;;3.88;;
41115;SDS011;26861;51.824;4.682;2023-07-02T02:47:06;6.18;;;4.20;;
41115;SDS011;26861;51.824;4.682;2023-07-02T02:49:31;5.78;;;3.90;;
41115;SDS011;26861;51.824;4.682;2023-07-02T02:51:57;6.78;;;3.97;;
41115;SDS011;26861;51.824;4.682;2023-07-02T02:54:23;5.97;;;3.83;;
41115;SDS011;26861;51.824;4.682;2023-07-02T02:56:48;6.72;;;4.25;;
41115;SDS011;26861;51.824;4.682;2023-07-02T02:59:14;6.03;;;4.07;;
41115;SDS011;26861;51.824;4.682;2023-07-02T03:01:39;7.18;;;4.25;;
41115;SDS011;26861;51.824;4.682;2023-07-02T03:04:05;6.07;;;4.03;;
41115;SDS011;26861;51.824;4.682;2023-07-02T03:06:33;6.32;;;3.70;;
41115;SDS011;26861;51.824;4.682;2023-07-02T03:08:59;6.93;;;4.20;;
41115;SDS011;26861;51.824;4.682;2023-07-02T03:11:25;6.43;;;3.55;;
41115;SDS011;26861;51.824;4.682;2023-07-02T03:13:51;6.55;;;4.32;;
41115;SDS011;26861;51.824;4.682;2023-07-02T03:16:17;7.20;;;3.95;;
41115;SDS011;26861;51.824;4.682;2023-07-02T03:18:43;5.53;;;3.65;;
41115;SDS011;26861;51.824;4.682;2023-07-02T03:21:08;5.15;;;3.85;;
41115;SDS011;26861;51.824;4.682;2023-07-02T03:23:35;6.50;;;3.75;;
41115;SDS011;26861;51.824;4.682;2023-07-02T03:26:01;6.25;;;3.65;;
41115;SDS011;26861;51.824;4.682;2023-07-02T03:28:27;6.20;;;3.90;;
41115;SDS011;26861;51.824;4.682;2023-07-02T03:30:53;4.97;;;3.70;;
41115;SDS011;26861;51.824;4.682;2023-07-02T03:33:20;5.72;;;4.20;;
41115;SDS011;26861;51.824;4.682;2023-07-02T03:35:45;7.18;;;3.75;;
41115;SDS011;26861;51.824;4.682;2023-07-02T03:38:11;8.05;;;4.32;;
41115;SDS011;26861;51.824;4.682;2023-07-02T03:40:36;6.68;;;3.95;;
41115;SDS011;26861;51.824;4.682;2023-07-02T03:43:02;5.25;;;3.30;;
41115;SDS011;26861;51.824;4.682;2023-07-02T03:45:27;6.47;;;3.83;;
41115;SDS011;26861;51.824;4.682;2023-07-02T03:47:53;5.50;;;3.38;;
41115;SDS011;26861;51.824;4.682;2023-07-02T03:50:19;6.55;;;3.67;;
41115;SDS011;26861;51.824;4.682;2023-07-02T03:52:45;5.93;;;4.15;;
41115;SDS011;26861;51.824;4.682;2023-07-02T03:55:11;5.85;;;3.92;;
41115;SDS011;26861;51.824;4.682;2023-07-02T03:57:38;6.53;;;4.43;;
41115;SDS011;26861;51.824;4.682;2023-07-02T04:00:04;4.95;;;3.58;;
41115;SDS011;26861;51.824;4.682;2023-07-02T04:02:31;5.78;;;3.88;;
41115;SDS011;26861;51.824;4.682;2023-07-02T04:04:57;7.72;;;3.85;;
41115;SDS011;26861;51.824;4.682;2023-07-02T04:07:23;5.70;;;3.97;;
41115;SDS011;26861;51.824;4.682;2023-07-02T04:09:49;5.47;;;3.90;;
41115;SDS011;26861;51.824;4.682;2023-07-02T04:12:15;7.65;;;4.05;;
41115;SDS011;26861;51.824;4.682;2023-07-02T04:14:41;5.78;;;4.10;;
41115;SDS011;26861;51.824;4.682;2023-07-02T04:17:07;6.70;;;4.30;;
41115;SDS011;26861;51.824;4.682;2023-07-02T04:19:33;7.85;;;4.40;;
41115;SDS011;26861;51.824;4.682;2023-07-02T04:21:59;6.63;;;3.80;;
41115;SDS011;26861;51.824;4.682;2023-07-02T04:24:24;6.43;;;3.67;;
41115;SDS011;26861;51.824;4.682;2023-07-02T04:26:51;6.25;;;3.70;;
41115;SDS011;26861;51.824;4.682;2023-07-02T04:29:18;6.05;;;3.45;;
41115;SDS011;26861;51.824;4.682;2023-07-02T04:31:43;6.45;;;4.10;;
41115;SDS011;26861;51.824;4.682;2023-07-02T04:34:09;5.38;;;3.92;;
41115;SDS011;26861;51.824;4.682;2023-07-02T04:36:34;7.32;;;3.78;;
41115;SDS011;26861;51.824;4.682;2023-07-02T04:39:00;6.88;;;4.38;;
41115;SDS011;26861;51.824;4.682;2023-07-02T04:41:26;6.13;;;4.03;;
41115;SDS011;26861;51.824;4.682;2023-07-02T04:43:52;5.95;;;3.70;;
41115;SDS011;26861;51.824;4.682;2023-07-02T04:46:19;6.60;;;4.25;;
41115;SDS011;26861;51.824;4.682;2023-07-02T04:48:45;6.03;;;3.92;;
41115;SDS011;26861;51.824;4.682;2023-07-02T04:51:11;5.80;;;4.05;;
41115;SDS011;26861;51.824;4.682;2023-07-02T04:53:37;6.43;;;4.22;;
41115;SDS011;26861;51.824;4.682;2023-07-02T04:56:03;5.95;;;4.50;;
41115;SDS011;26861;51.824;4.682;2023-07-02T04:58:29;7.15;;;4.85;;
41115;SDS011;26861;51.824;4.682;2023-07-02T05:00:55;9.32;;;5.13;;
41115;SDS011;26861;51.824;4.682;2023-07-02T05:03:21;8.43;;;6.05;;
41115;SDS011;26861;51.824;4.682;2023-07-02T05:05:47;10.68;;;7.00;;
41115;SDS011;26861;51.824;4.682;2023-07-02T05:08:14;9.45;;;7.57;;
41115;SDS011;26861;51.824;4.682;2023-07-02T05:10:39;9.55;;;7.38;;
41115;SDS011;26861;51.824;4.682;2023-07-02T05:13:05;9.85;;;8.85;;
41115;SDS011;26861;51.824;4.682;2023-07-02T05:15:31;11.63;;;10.35;;
41115;SDS011;26861;51.824;4.682;2023-07-02T05:17:57;15.07;;;11.95;;
41115;SDS011;26861;51.824;4.682;2023-07-02T05:20:23;17.10;;;13.32;;
41115;SDS011;26861;51.824;4.682;2023-07-02T05:22:49;15.63;;;14.02;;
41115;SDS011;26861;51.824;4.682;2023-07-02T05:25:15;15.90;;;14.30;;
41115;SDS011;26861;51.824;4.682;2023-07-02T05:27:42;18.77;;;16.55;;
41115;SDS011;26861;51.824;4.682;2023-07-02T05:30:08;18.20;;;16.50;;
41115;SDS011;26861;51.824;4.682;2023-07-02T05:32:34;19.55;;;17.70;;
41115;SDS011;26861;51.824;4.682;2023-07-02T05:35:00;19.80;;;17.83;;
41115;SDS011;26861;51.824;4.682;2023-07-02T05:37:26;19.90;;;17.95;;
41115;SDS011;26861;51.824;4.682;2023-07-02T05:39:53;20.85;;;18.75;;
41115;SDS011;26861;51.824;4.682;2023-07-02T05:42:19;20.15;;;18.17;;
41115;SDS011;26861;51.824;4.682;2023-07-02T05:44:45;21.70;;;19.60;;
41115;SDS011;26861;51.824;4.682;2023-07-02T05:47:11;21.27;;;19.27;;
41115;SDS011;26861;51.824;4.682;2023-07-02T05:49:38;21.42;;;19.20;;
41115;SDS011;26861;51.824;4.682;2023-07-02T05:52:04;21.30;;;19.30;;
41115;SDS011;26861;51.824;4.682;2023-07-02T05:54:30;19.45;;;17.65;;
41115;SDS011;26861;51.824;4.682;2023-07-02T05:56:56;18.45;;;16.65;;
41115;SDS011;26861;51.824;4.682;2023-07-02T05:59:22;19.73;;;17.83;;
41115;SDS011;26861;51.824;4.682;2023-07-02T06:01:48;20.60;;;18.55;;
41115;SDS011;26861;51.824;4.682;2023-07-02T06:04:14;19.50;;;17.60;;
41115;SDS011;26861;51.824;4.682;2023-07-02T06:06:39;19.25;;;17.15;;
41115;SDS011;26861;51.824;4.682;2023-07-02T06:09:05;17.23;;;15.43;;
41115;SDS011;26861;51.824;4.682;2023-07-02T06:11:30;18.17;;;16.38;;
41115;SDS011;26861;51.824;4.682;2023-07-02T06:13:57;17.00;;;15.35;;
41115;SDS011;26861;51.824;4.682;2023-07-02T06:16:23;16.73;;;15.13;;
41115;SDS011;26861;51.824;4.682;2023-07-02T06:18:49;17.00;;;15.23;;
41115;SDS011;26861;51.824;4.682;2023-07-02T06:21:15;15.93;;;13.95;;
41115;SDS011;26861;51.824;4.682;2023-07-02T06:23:44;14.85;;;13.40;;
41115;SDS011;26861;51.824;4.682;2023-07-02T06:26:10;14.75;;;13.18;;
41115;SDS011;26861;51.824;4.682;2023-07-02T06:28:36;15.02;;;13.35;;
41115;SDS011;26861;51.824;4.682;2023-07-02T06:31:02;14.88;;;12.43;;
41115;SDS011;26861;51.824;4.682;2023-07-02T06:33:27;15.70;;;11.90;;
41115;SDS011;26861;51.824;4.682;2023-07-02T06:35:53;12.32;;;10.90;;
41115;SDS011;26861;51.824;4.682;2023-07-02T06:38:19;14.35;;;10.45;;
41115;SDS011;26861;51.824;4.682;2023-07-02T06:40:44;12.07;;;9.75;;
41115;SDS011;26861;51.824;4.682;2023-07-02T06:43:10;12.95;;;9.60;;
41115;SDS011;26861;51.824;4.682;2023-07-02T06:45:36;12.95;;;8.52;;
41115;SDS011;26861;51.824;4.682;2023-07-02T06:48:01;16.02;;;8.05;;
41115;SDS011;26861;51.824;4.682;2023-07-02T06:50:27;11.13;;;7.90;;
41115;SDS011;26861;51.824;4.682;2023-07-02T06:52:53;11.93;;;7.20;;
41115;SDS011;26861;51.824;4.682;2023-07-02T06:55:19;11.63;;;6.40;;
41115;SDS011;26861;51.824;4.682;2023-07-02T06:57:45;12.48;;;6.38;;
41115;SDS011;26861;51.824;4.682;2023-07-02T07:00:12;12.32;;;7.35;;
41115;SDS011;26861;51.824;4.682;2023-07-02T07:02:38;10.57;;;5.95;;
41115;SDS011;26861;51.824;4.682;2023-07-02T07:05:04;9.10;;;5.57;;
41115;SDS011;26861;51.824;4.682;2023-07-02T07:07:30;11.77;;;5.47;;
41115;SDS011;26861;51.824;4.682;2023-07-02T07:09:55;10.35;;;5.55;;
41115;SDS011;26861;51.824;4.682;2023-07-02T07:12:21;9.90;;;4.60;;
41115;SDS011;26861;51.824;4.682;2023-07-02T07:14:48;13.57;;;5.45;;
41115;SDS011;26861;51.824;4.682;2023-07-02T07:17:13;11.00;;;4.93;;
41115;SDS011;26861;51.824;4.682;2023-07-02T07:19:39;10.32;;;4.85;;
41115;SDS011;26861;51.824;4.682;2023-07-02T07:22:04;9.43;;;4.47;;
41115;SDS011;26861;51.824;4.682;2023-07-02T07:24:30;10.80;;;4.50;;
41115;SDS011;26861;51.824;4.682;2023-07-02T07:26:56;10.63;;;4.82;;
41115;SDS011;26861;51.824;4.682;2023-07-02T07:29:21;12.18;;;5.22;;
41115;SDS011;26861;51.824;4.682;2023-07-02T07:31:47;9.68;;;5.00;;
41115;SDS011;26861;51.824;4.682;2023-07-02T07:34:13;9.43;;;4.50;;
41115;SDS011;26861;51.824;4.682;2023-07-02T07:36:38;6.90;;;4.75;;
41115;SDS011;26861;51.824;4.682;2023-07-02T07:39:04;8.52;;;4.93;;
41115;SDS011;26861;51.824;4.682;2023-07-02T07:41:30;8.07;;;4.30;;
41115;SDS011;26861;51.824;4.682;2023-07-02T07:43:57;7.57;;;4.30;;
41115;SDS011;26861;51.824;4.682;2023-07-02T07:46:23;8.63;;;4.22;;
41115;SDS011;26861;51.824;4.682;2023-07-02T07:48:48;10.48;;;4.88;;
41115;SDS011;26861;51.824;4.682;2023-07-02T07:51:15;8.98;;;4.78;;
41115;SDS011;26861;51.824;4.682;2023-07-02T07:53:41;6.63;;;4.10;;
41115;SDS011;26861;51.824;4.682;2023-07-02T07:56:08;7.22;;;4.65;;
41115;SDS011;26861;51.824;4.682;2023-07-02T07:58:34;8.90;;;4.32;;
41115;SDS011;26861;51.824;4.682;2023-07-02T08:01:00;10.50;;;4.95;;
41115;SDS011;26861;51.824;4.682;2023-07-02T08:03:26;9.23;;;4.47;;
41115;SDS011;26861;51.824;4.682;2023-07-02T08:05:52;8.98;;;4.20;;
41115;SDS011;26861;51.824;4.682;2023-07-02T08:08:18;7.03;;;4.30;;
41115;SDS011;26861;51.824;4.682;2023-07-02T08:10:44;7.63;;;4.20;;
41115;SDS011;26861;51.824;4.682;2023-07-02T08:13:11;8.90;;;4.18;;
41115;SDS011;26861;51.824;4.682;2023-07-02T08:15:38;6.53;;;3.90;;
41115;SDS011;26861;51.824;4.682;2023-07-02T08:18:04;7.55;;;3.65;;
41115;SDS011;26861;51.824;4.682;2023-07-02T08:20:32;6.57;;;3.55;;
41115;SDS011;26861;51.824;4.682;2023-07-02T08:22:58;10.98;;;4.72;;
41115;SDS011;26861;51.824;4.682;2023-07-02T08:25:24;7.70;;;3.63;;
41115;SDS011;26861;51.824;4.682;2023-07-02T08:27:52;10.13;;;4.55;;
41115;SDS011;26861;51.824;4.682;2023-07-02T08:30:18;7.03;;;4.07;;
41115;SDS011;26861;51.824;4.682;2023-07-02T08:32:45;8.32;;;4.00;;
41115;SDS011;26861;51.824;4.682;2023-07-02T08:35:11;7.68;;;3.85;;
41115;SDS011;26861;51.824;4.682;2023-07-02T08:37:37;6.78;;;3.78;;
41115;SDS011;26861;51.824;4.682;2023-07-02T08:40:03;5.50;;;3.25;;
41115;SDS011;26861;51.824;4.682;2023-07-02T08:42:31;7.53;;;4.18;;
41115;SDS011;26861;51.824;4.682;2023-07-02T08:44:59;6.90;;;3.92;;
41115;SDS011;26861;51.824;4.682;2023-07-02T08:47:26;5.95;;;3.35;;
41115;SDS011;26861;51.824;4.682;2023-07-02T08:49:53;6.97;;;3.65;;
41115;SDS011;26861;51.824;4.682;2023-07-02T08:52:19;6.20;;;4.03;;
41115;SDS011;26861;51.824;4.682;2023-07-02T08:54:45;7.55;;;3.65;;
41115;SDS011;26861;51.824;4.682;2023-07-02T08:57:11;7.03;;;4.03;;
41115;SDS011;26861;51.824;4.682;2023-07-02T08:59:38;5.28;;;3.85;;
41115;SDS011;26861;51.824;4.682;2023-07-02T09:02:04;8.35;;;4.25;;
41115;SDS011;26861;51.824;4.682;2023-07-02T09:04:30;6.75;;;3.47;;
41115;SDS011;26861;51.824;4.682;2023-07-02T09:07:09;5.32;;;3.30;;
41115;SDS011;26861;51.824;4.682;2023-07-02T09:09:45;5.57;;;3.53;;
41115;SDS011;26861;51.824;4.682;2023-07-02T09:15:03;6.22;;;4.00;;
41115;SDS011;26861;51.824;4.682;2023-07-02T09:17:37;7.20;;;3.90;;
41115;SDS011;26861;51.824;4.682;2023-07-02T09:20:06;5.47;;;3.50;;
41115;SDS011;26861;51.824;4.682;2023-07-02T09:22:34;5.53;;;3.72;;
41115;SDS011;26861;51.824;4.682;2023-07-02T09:25:01;4.75;;;3.08;;
41115;SDS011;26861;51.824;4.682;2023-07-02T09:27:34;5.50;;;2.97;;
41115;SDS011;26861;51.824;4.682;2023-07-02T09:30:08;3.97;;;2.90;;
41115;SDS011;26861;51.824;4.682;2023-07-02T09:32:39;4.68;;;2.95;;
41115;SDS011;26861;51.824;4.682;2023-07-02T09:35:06;5.43;;;2.88;;
41115;SDS011;26861;51.824;4.682;2023-07-02T09:37:32;6.20;;;3.00;;
41115;SDS011;26861;51.824;4.682;2023-07-02T09:39:59;4.85;;;3.40;;
41115;SDS011;26861;51.824;4.682;2023-07-02T09:42:26;4.03;;;2.50;;
41115;SDS011;26861;51.824;4.682;2023-07-02T09:44:54;6.55;;;3.90;;
41115;SDS011;26861;51.824;4.682;2023-07-02T09:47:22;3.20;;;2.72;;
41115;SDS011;26861;51.824;4.682;2023-07-02T09:54:46;4.15;;;2.42;;
41115;SDS011;26861;51.824;4.682;2023-07-02T09:57:12;4.38;;;2.72;;
41115;SDS011;26861;51.824;4.682;2023-07-02T09:59:39;4.72;;;2.55;;
41115;SDS011;26861;51.824;4.682;2023-07-02T10:02:06;4.80;;;2.60;;
41115;SDS011;26861;51.824;4.682;2023-07-02T10:04:43;3.90;;;2.60;;
41115;SDS011;26861;51.824;4.682;2023-07-02T10:07:11;4.25;;;2.47;;
41115;SDS011;26861;51.824;4.682;2023-07-02T10:09:44;5.95;;;2.97;;
41115;SDS011;26861;51.824;4.682;2023-07-02T10:12:18;4.78;;;3.05;;
41115;SDS011;26861;51.824;4.682;2023-07-02T10:14:46;4.43;;;2.83;;
41115;SDS011;26861;51.824;4.682;2023-07-02T10:17:23;3.97;;;2.33;;
41115;SDS011;26861;51.824;4.682;2023-07-02T10:19:57;5.68;;;2.55;;
41115;SDS011;26861;51.824;4.682;2023-07-02T10:22:50;3.13;;;2.30;;
41115;SDS011;26861;51.824;4.682;2023-07-02T10:25:26;4.03;;;2.22;;
41115;SDS011;26861;51.824;4.682;2023-07-02T10:27:57;5.10;;;2.47;;
41115;SDS011;26861;51.824;4.682;2023-07-02T10:30:31;4.32;;;2.60;;
41115;SDS011;26861;51.824;4.682;2023-07-02T10:33:08;3.30;;;2.58;;
41115;SDS011;26861;51.824;4.682;2023-07-02T10:35:40;4.35;;;2.63;;
41115;SDS011;26861;51.824;4.682;2023-07-02T10:40:44;3.53;;;2.22;;
41115;SDS011;26861;51.824;4.682;2023-07-02T10:43:10;3.33;;;2.40;;
41115;SDS011;26861;51.824;4.682;2023-07-02T10:45:36;3.08;;;2.08;;
41115;SDS011;26861;51.824;4.682;2023-07-02T10:48:03;3.67;;;2.28;;
41115;SDS011;26861;51.824;4.682;2023-07-02T10:50:33;3.67;;;2.50;;
41115;SDS011;26861;51.824;4.682;2023-07-02T10:53:00;2.92;;;2.28;;
41115;SDS011;26861;51.824;4.682;2023-07-02T10:55:26;4.18;;;2.33;;
41115;SDS011;26861;51.824;4.682;2023-07-02T10:58:03;5.95;;;2.17;;
41115;SDS011;26861;51.824;4.682;2023-07-02T11:00:31;3.53;;;2.08;;
41115;SDS011;26861;51.824;4.682;2023-07-02T11:02:57;3.47;;;2.10;;
41115;SDS011;26861;51.824;4.682;2023-07-02T11:05:24;4.28;;;2.53;;
41115;SDS011;26861;51.824;4.682;2023-07-02T11:07:50;4.28;;;2.42;;
41115;SDS011;26861;51.824;4.682;2023-07-02T11:10:22;2.58;;;2.28;;
41115;SDS011;26861;51.824;4.682;2023-07-02T11:12:49;3.97;;;2.17;;
41115;SDS011;26861;51.824;4.682;2023-07-02T11:15:16;3.08;;;1.92;;
41115;SDS011;26861;51.824;4.682;2023-07-02T11:17:43;3.58;;;2.20;;
41115;SDS011;26861;51.824;4.682;2023-07-02T11:20:09;3.35;;;2.15;;
41115;SDS011;26861;51.824;4.682;2023-07-02T11:22:36;3.30;;;2.35;;
41115;SDS011;26861;51.824;4.682;2023-07-02T11:25:16;5.30;;;2.70;;
41115;SDS011;26861;51.824;4.682;2023-07-02T11:27:43;4.50;;;2.75;;
41115;SDS011;26861;51.824;4.682;2023-07-02T11:30:10;3.45;;;2.40;;
41115;SDS011;26861;51.824;4.682;2023-07-02T11:32:49;3.60;;;2.58;;
41115;SDS011;26861;51.824;4.682;2023-07-02T11:35:18;5.05;;;2.55;;
41115;SDS011;26861;51.824;4.682;2023-07-02T11:37:45;3.83;;;2.53;;
41115;SDS011;26861;51.824;4.682;2023-07-02T11:40:14;4.15;;;3.08;;
41115;SDS011;26861;51.824;4.682;2023-07-02T11:42:42;5.32;;;2.55;;
41115;SDS011;26861;51.824;4.682;2023-07-02T11:45:09;4.68;;;2.50;;
41115;SDS011;26861;51.824;4.682;2023-07-02T11:47:35;6.50;;;2.80;;
41115;SDS011;26861;51.824;4.682;2023-07-02T11:50:03;5.55;;;3.10;;
41115;SDS011;26861;51.824;4.682;2023-07-02T11:52:30;4.82;;;2.35;;
41115;SDS011;26861;51.824;4.682;2023-07-02T11:54:56;4.85;;;2.67;;
41115;SDS011;26861;51.824;4.682;2023-07-02T11:57:21;3.70;;;2.50;;
41115;SDS011;26861;51.824;4.682;2023-07-02T11:59:47;4.35;;;2.60;;
41115;SDS011;26861;51.824;4.682;2023-07-02T12:02:14;4.90;;;2.75;;
41115;SDS011;26861;51.824;4.682;2023-07-02T12:04:40;3.28;;;2.60;;
41115;SDS011;26861;51.824;4.682;2023-07-02T12:07:06;6.65;;;3.30;;
41115;SDS011;26861;51.824;4.682;2023-07-02T12:09:32;4.82;;;3.35;;
41115;SDS011;26861;51.824;4.682;2023-07-02T12:11:58;5.72;;;3.15;;
41115;SDS011;26861;51.824;4.682;2023-07-02T12:14:24;4.70;;;3.35;;
41115;SDS011;26861;51.824;4.682;2023-07-02T12:16:50;4.45;;;2.80;;
41115;SDS011;26861;51.824;4.682;2023-07-02T12:19:16;5.65;;;3.80;;
41115;SDS011;26861;51.824;4.682;2023-07-02T12:21:42;7.65;;;4.28;;
41115;SDS011;26861;51.824;4.682;2023-07-02T12:24:08;6.43;;;3.55;;
41115;SDS011;26861;51.824;4.682;2023-07-02T12:26:37;9.52;;;3.92;;
41115;SDS011;26861;51.824;4.682;2023-07-02T12:31:30;6.03;;;3.58;;
41115;SDS011;26861;51.824;4.682;2023-07-02T12:33:57;6.85;;;3.85;;
41115;SDS011;26861;51.824;4.682;2023-07-02T12:36:22;8.43;;;4.63;;
41115;SDS011;26861;51.824;4.682;2023-07-02T12:38:48;7.03;;;3.72;;
41115;SDS011;26861;51.824;4.682;2023-07-02T12:41:14;6.82;;;3.90;;
41115;SDS011;26861;51.824;4.682;2023-07-02T12:43:40;8.18;;;3.85;;
41115;SDS011;26861;51.824;4.682;2023-07-02T12:46:06;7.00;;;4.05;;
41115;SDS011;26861;51.824;4.682;2023-07-02T12:48:32;7.30;;;3.95;;
41115;SDS011;26861;51.824;4.682;2023-07-02T12:50:59;9.00;;;4.60;;
41115;SDS011;26861;51.824;4.682;2023-07-02T12:53:26;8.52;;;4.30;;
41115;SDS011;26861;51.824;4.682;2023-07-02T12:55:52;9.18;;;4.15;;
41115;SDS011;26861;51.824;4.682;2023-07-02T12:58:19;8.23;;;3.97;;
41115;SDS011;26861;51.824;4.682;2023-07-02T13:00:45;5.60;;;3.83;;
41115;SDS011;26861;51.824;4.682;2023-07-02T13:03:12;6.82;;;3.90;;
41115;SDS011;26861;51.824;4.682;2023-07-02T13:05:39;8.32;;;4.32;;
41115;SDS011;26861;51.824;4.682;2023-07-02T13:08:05;7.22;;;4.10;;
41115;SDS011;26861;51.824;4.682;2023-07-02T13:10:32;8.82;;;4.13;;
41115;SDS011;26861;51.824;4.682;2023-07-02T13:12:59;7.95;;;3.72;;
41115;SDS011;26861;51.824;4.682;2023-07-02T13:15:25;6.20;;;4.35;;
41115;SDS011;26861;51.824;4.682;2023-07-02T13:17:53;7.25;;;3.97;;
41115;SDS011;26861;51.824;4.682;2023-07-02T13:22:49;7.30;;;3.45;;
41115;SDS011;26861;51.824;4.682;2023-07-02T13:25:15;8.75;;;4.53;;
41115;SDS011;26861;51.824;4.682;2023-07-02T13:27:41;7.40;;;3.75;;
41115;SDS011;26861;51.824;4.682;2023-07-02T13:30:07;8.77;;;3.83;;
41115;SDS011;26861;51.824;4.682;2023-07-02T13:32:33;8.18;;;3.45;;
41115;SDS011;26861;51.824;4.682;2023-07-02T13:34:59;7.78;;;3.90;;
41115;SDS011;26861;51.824;4.682;2023-07-02T13:37:24;7.03;;;3.90;;
41115;SDS011;26861;51.824;4.682;2023-07-02T13:39:50;6.22;;;3.33;;
41115;SDS011;26861;51.824;4.682;2023-07-02T13:42:17;6.60;;;3.63;;
41115;SDS011;26861;51.824;4.682;2023-07-02T13:44:43;6.78;;;3.25;;
41115;SDS011;26861;51.824;4.682;2023-07-02T13:47:09;6.55;;;3.35;;
41115;SDS011;26861;51.824;4.682;2023-07-02T13:49:36;5.38;;;3.22;;
41115;SDS011;26861;51.824;4.682;2023-07-02T13:52:02;6.15;;;3.45;;
41115;SDS011;26861;51.824;4.682;2023-07-02T13:54:29;4.68;;;3.22;;
41115;SDS011;26861;51.824;4.682;2023-07-02T13:56:55;8.00;;;3.55;;
41115;SDS011;26861;51.824;4.682;2023-07-02T13:59:22;6.28;;;3.53;;
41115;SDS011;26861;51.824;4.682;2023-07-02T14:01:49;5.22;;;3.40;;
41115;SDS011;26861;51.824;4.682;2023-07-02T14:04:16;7.18;;;3.78;;
41115;SDS011;26861;51.824;4.682;2023-07-02T14:06:43;7.45;;;3.97;;
41115;SDS011;26861;51.824;4.682;2023-07-02T14:09:09;6.82;;;3.28;;
41115;SDS011;26861;51.824;4.682;2023-07-02T14:11:39;6.15;;;3.35;;
41115;SDS011;26861;51.824;4.682;2023-07-02T14:14:07;8.68;;;3.97;;
41115;SDS011;26861;51.824;4.682;2023-07-02T14:16:33;7.63;;;3.90;;
41115;SDS011;26861;51.824;4.682;2023-07-02T14:18:59;7.13;;;3.75;;
41115;SDS011;26861;51.824;4.682;2023-07-02T14:21:25;6.35;;;3.20;;
41115;SDS011;26861;51.824;4.682;2023-07-02T14:23:50;6.90;;;3.60;;
41115;SDS011;26861;51.824;4.682;2023-07-02T14:26:16;8.20;;;3.85;;
41115;SDS011;26861;51.824;4.682;2023-07-02T14:28:42;6.30;;;3.88;;
41115;SDS011;26861;51.824;4.682;2023-07-02T14:31:08;9.63;;;4.22;;
41115;SDS011;26861;51.824;4.682;2023-07-02T14:33:35;7.20;;;3.55;;
41115;SDS011;26861;51.824;4.682;2023-07-02T14:36:02;6.28;;;3.83;;
41115;SDS011;26861;51.824;4.682;2023-07-02T14:38:28;10.45;;;4.70;;
41115;SDS011;26861;51.824;4.682;2023-07-02T14:40:55;7.47;;;3.90;;
41115;SDS011;26861;51.824;4.682;2023-07-02T14:43:22;6.95;;;3.42;;
41115;SDS011;26861;51.824;4.682;2023-07-02T14:45:50;7.65;;;3.72;;
41115;SDS011;26861;51.824;4.682;2023-07-02T14:48:17;7.75;;;4.07;;
41115;SDS011;26861;51.824;4.682;2023-07-02T14:50:53;6.47;;;3.38;;
41115;SDS011;26861;51.824;4.682;2023-07-02T14:53:22;7.80;;;4.07;;
41115;SDS011;26861;51.824;4.682;2023-07-02T14:55:48;10.00;;;4.22;;
41115;SDS011;26861;51.824;4.682;2023-07-02T14:58:15;7.47;;;3.85;;
41115;SDS011;26861;51.824;4.682;2023-07-02T15:00:47;9.32;;;4.40;;
41115;SDS011;26861;51.824;4.682;2023-07-02T15:03:15;8.50;;;3.65;;